sensor_id;sensor_type;location;lat;lon;timestamp;P1;durP1;ratioP1;P2;durP2;ratioP2
48945;SDS011;34999;50.940;3.998;2023-12-20T00:01:32;21.40;;;3.90;;
48945;SDS011;34999;50.940;3.998;2023-12-20T00:04:01;16.07;;;3.47;;
48945;SDS011;34999;50.940;3.998;2023-12-20T00:06:29;25.83;;;3.60;;
48945;SDS011;34999;50.940;3.998;2023-12-20T00:08:57;17.50;;;4.37;;
48945;SDS011;34999;50.940;3.998;2023-12-20T00:11:26;23.33;;;4.40;;
48945;SDS011;34999;50.940;3.998;2023-12-20T00:13:55;12.73;;;3.33;;
48945;SDS011;34999;50.940;3.998;2023-12-20T00:16:23;22.23;;;3.97;;
48945;SDS011;34999;50.940;3.998;2023-12-20T00:18:52;21.37;;;3.90;;
48945;SDS011;34999;50.940;3.998;2023-12-20T00:21:21;19.63;;;3.97;;
48945;SDS011;34999;50.940;3.998;2023-12-20T00:23:49;20.73;;;4.43;;
48945;SDS011;34999;50.940;3.998;2023-12-20T00:26:17;17.77;;;4.63;;
48945;SDS011;34999;50.940;3.998;2023-12-20T00:28:46;17.50;;;4.57;;
48945;SDS011;34999;50.940;3.998;2023-12-20T00:31:14;14.30;;;4.50;;
48945;SDS011;34999;50.940;3.998;2023-12-20T00:33:42;21.87;;;5.00;;
48945;SDS011;34999;50.940;3.998;2023-12-20T00:36:14;18.43;;;5.17;;
48945;SDS011;34999;50.940;3.998;2023-12-20T00:38:42;17.23;;;4.73;;
48945;SDS011;34999;50.940;3.998;2023-12-20T00:41:10;19.10;;;4.73;;
48945;SDS011;34999;50.940;3.998;2023-12-20T00:43:38;22.23;;;5.37;;
48945;SDS011;34999;50.940;3.998;2023-12-20T00:46:07;22.73;;;5.57;;
48945;SDS011;34999;50.940;3.998;2023-12-20T00:48:35;20.07;;;5.00;;
48945;SDS011;34999;50.940;3.998;2023-12-20T00:51:04;32.67;;;5.20;;
48945;SDS011;34999;50.940;3.998;2023-12-20T00:53:33;21.00;;;5.50;;
48945;SDS011;34999;50.940;3.998;2023-12-20T00:56:01;21.60;;;5.60;;
48945;SDS011;34999;50.940;3.998;2023-12-20T00:58:30;22.53;;;5.90;;
48945;SDS011;34999;50.940;3.998;2023-12-20T01:00:58;17.50;;;5.67;;
48945;SDS011;34999;50.940;3.998;2023-12-20T01:03:27;23.80;;;5.80;;
48945;SDS011;34999;50.940;3.998;2023-12-20T01:05:55;24.47;;;6.20;;
48945;SDS011;34999;50.940;3.998;2023-12-20T01:08:23;24.77;;;5.97;;
48945;SDS011;34999;50.940;3.998;2023-12-20T01:10:53;25.03;;;5.97;;
48945;SDS011;34999;50.940;3.998;2023-12-20T01:13:21;30.53;;;5.60;;
48945;SDS011;34999;50.940;3.998;2023-12-20T01:15:49;24.43;;;5.73;;
48945;SDS011;34999;50.940;3.998;2023-12-20T01:18:18;20.57;;;5.93;;
48945;SDS011;34999;50.940;3.998;2023-12-20T01:20:46;30.10;;;5.87;;
48945;SDS011;34999;50.940;3.998;2023-12-20T01:23:14;22.83;;;6.20;;
48945;SDS011;34999;50.940;3.998;2023-12-20T01:25:42;21.90;;;6.13;;
48945;SDS011;34999;50.940;3.998;2023-12-20T01:28:12;20.20;;;5.90;;
48945;SDS011;34999;50.940;3.998;2023-12-20T01:30:40;31.27;;;5.63;;
48945;SDS011;34999;50.940;3.998;2023-12-20T01:33:08;20.87;;;5.77;;
48945;SDS011;34999;50.940;3.998;2023-12-20T01:35:37;21.90;;;5.40;;
48945;SDS011;34999;50.940;3.998;2023-12-20T01:38:05;21.10;;;5.17;;
48945;SDS011;34999;50.940;3.998;2023-12-20T01:40:33;21.83;;;5.07;;
48945;SDS011;34999;50.940;3.998;2023-12-20T01:43:02;28.73;;;5.97;;
48945;SDS011;34999;50.940;3.998;2023-12-20T01:45:36;20.80;;;4.77;;
48945;SDS011;34999;50.940;3.998;2023-12-20T01:48:04;32.37;;;5.37;;
48945;SDS011;34999;50.940;3.998;2023-12-20T01:50:34;39.40;;;5.13;;
48945;SDS011;34999;50.940;3.998;2023-12-20T01:53:04;22.33;;;5.60;;
48945;SDS011;34999;50.940;3.998;2023-12-20T01:55:35;26.83;;;4.57;;
48945;SDS011;34999;50.940;3.998;2023-12-20T01:58:06;25.77;;;5.13;;
48945;SDS011;34999;50.940;3.998;2023-12-20T02:00:38;26.07;;;5.30;;
48945;SDS011;34999;50.940;3.998;2023-12-20T02:03:06;24.40;;;5.87;;
48945;SDS011;34999;50.940;3.998;2023-12-20T02:05:35;25.97;;;5.23;;
48945;SDS011;34999;50.940;3.998;2023-12-20T02:08:05;28.80;;;6.50;;
48945;SDS011;34999;50.940;3.998;2023-12-20T02:10:34;26.73;;;6.57;;
48945;SDS011;34999;50.940;3.998;2023-12-20T02:13:05;26.60;;;6.13;;
48945;SDS011;34999;50.940;3.998;2023-12-20T02:15:33;23.23;;;5.67;;
48945;SDS011;34999;50.940;3.998;2023-12-20T02:18:05;31.30;;;6.87;;
48945;SDS011;34999;50.940;3.998;2023-12-20T02:20:34;26.47;;;6.03;;
48945;SDS011;34999;50.940;3.998;2023-12-20T02:23:03;28.70;;;6.07;;
48945;SDS011;34999;50.940;3.998;2023-12-20T02:25:31;23.97;;;6.10;;
48945;SDS011;34999;50.940;3.998;2023-12-20T02:27:59;29.23;;;6.50;;
48945;SDS011;34999;50.940;3.998;2023-12-20T02:30:28;39.50;;;6.20;;
48945;SDS011;34999;50.940;3.998;2023-12-20T02:32:57;23.20;;;5.77;;
48945;SDS011;34999;50.940;3.998;2023-12-20T02:35:27;20.33;;;5.43;;
48945;SDS011;34999;50.940;3.998;2023-12-20T02:37:55;30.83;;;6.07;;
48945;SDS011;34999;50.940;3.998;2023-12-20T02:40:25;31.03;;;6.67;;
48945;SDS011;34999;50.940;3.998;2023-12-20T02:42:53;23.10;;;7.23;;
48945;SDS011;34999;50.940;3.998;2023-12-20T02:45:22;25.53;;;5.63;;
48945;SDS011;34999;50.940;3.998;2023-12-20T02:47:50;34.77;;;6.23;;
48945;SDS011;34999;50.940;3.998;2023-12-20T02:50:18;35.67;;;6.87;;
48945;SDS011;34999;50.940;3.998;2023-12-20T02:52:46;22.33;;;6.47;;
48945;SDS011;34999;50.940;3.998;2023-12-20T02:55:14;24.30;;;6.23;;
48945;SDS011;34999;50.940;3.998;2023-12-20T02:57:44;26.43;;;6.40;;
48945;SDS011;34999;50.940;3.998;2023-12-20T03:00:13;30.73;;;7.03;;
48945;SDS011;34999;50.940;3.998;2023-12-20T03:02:41;26.67;;;7.47;;
48945;SDS011;34999;50.940;3.998;2023-12-20T03:05:10;22.47;;;6.13;;
48945;SDS011;34999;50.940;3.998;2023-12-20T03:07:38;21.30;;;6.20;;
48945;SDS011;34999;50.940;3.998;2023-12-20T03:10:07;22.63;;;5.90;;
48945;SDS011;34999;50.940;3.998;2023-12-20T03:12:47;25.83;;;5.20;;
48945;SDS011;34999;50.940;3.998;2023-12-20T03:15:15;27.23;;;5.60;;
48945;SDS011;34999;50.940;3.998;2023-12-20T03:17:43;19.77;;;5.53;;
48945;SDS011;34999;50.940;3.998;2023-12-20T03:20:13;34.17;;;5.70;;
48945;SDS011;34999;50.940;3.998;2023-12-20T03:22:41;15.37;;;5.43;;
48945;SDS011;34999;50.940;3.998;2023-12-20T03:25:09;23.97;;;5.27;;
48945;SDS011;34999;50.940;3.998;2023-12-20T03:27:38;36.57;;;5.93;;
48945;SDS011;34999;50.940;3.998;2023-12-20T03:30:08;23.83;;;5.20;;
48945;SDS011;34999;50.940;3.998;2023-12-20T03:32:37;18.90;;;5.00;;
48945;SDS011;34999;50.940;3.998;2023-12-20T03:35:06;25.80;;;4.83;;
48945;SDS011;34999;50.940;3.998;2023-12-20T03:37:34;36.00;;;5.37;;
48945;SDS011;34999;50.940;3.998;2023-12-20T03:40:03;19.90;;;4.97;;
48945;SDS011;34999;50.940;3.998;2023-12-20T03:42:32;24.23;;;5.40;;
48945;SDS011;34999;50.940;3.998;2023-12-20T03:45:01;23.47;;;5.50;;
48945;SDS011;34999;50.940;3.998;2023-12-20T03:47:31;21.37;;;5.00;;
48945;SDS011;34999;50.940;3.998;2023-12-20T03:49:59;18.20;;;5.40;;
48945;SDS011;34999;50.940;3.998;2023-12-20T03:52:28;27.47;;;5.20;;
48945;SDS011;34999;50.940;3.998;2023-12-20T03:54:56;26.37;;;4.87;;
48945;SDS011;34999;50.940;3.998;2023-12-20T03:57:24;25.50;;;5.03;;
48945;SDS011;34999;50.940;3.998;2023-12-20T03:59:53;25.40;;;5.20;;
48945;SDS011;34999;50.940;3.998;2023-12-20T04:02:21;19.93;;;5.07;;
48945;SDS011;34999;50.940;3.998;2023-12-20T04:04:51;20.87;;;5.40;;
48945;SDS011;34999;50.940;3.998;2023-12-20T04:07:19;23.87;;;5.30;;
48945;SDS011;34999;50.940;3.998;2023-12-20T04:09:48;20.40;;;5.23;;
48945;SDS011;34999;50.940;3.998;2023-12-20T04:12:16;23.83;;;5.30;;
48945;SDS011;34999;50.940;3.998;2023-12-20T04:14:44;20.07;;;4.97;;
48945;SDS011;34999;50.940;3.998;2023-12-20T04:17:12;23.43;;;5.00;;
48945;SDS011;34999;50.940;3.998;2023-12-20T04:19:42;19.33;;;4.77;;
48945;SDS011;34999;50.940;3.998;2023-12-20T04:22:12;25.90;;;5.00;;
48945;SDS011;34999;50.940;3.998;2023-12-20T04:24:40;16.70;;;5.10;;
48945;SDS011;34999;50.940;3.998;2023-12-20T04:27:09;34.47;;;6.17;;
48945;SDS011;34999;50.940;3.998;2023-12-20T04:29:38;25.40;;;4.97;;
48945;SDS011;34999;50.940;3.998;2023-12-20T04:32:07;22.83;;;4.97;;
48945;SDS011;34999;50.940;3.998;2023-12-20T04:34:36;23.40;;;5.03;;
48945;SDS011;34999;50.940;3.998;2023-12-20T04:37:04;28.40;;;6.20;;
48945;SDS011;34999;50.940;3.998;2023-12-20T04:39:34;20.10;;;5.30;;
48945;SDS011;34999;50.940;3.998;2023-12-20T04:42:02;22.30;;;5.10;;
48945;SDS011;34999;50.940;3.998;2023-12-20T04:44:31;28.17;;;4.93;;
48945;SDS011;34999;50.940;3.998;2023-12-20T04:46:59;18.33;;;5.20;;
48945;SDS011;34999;50.940;3.998;2023-12-20T04:49:27;25.90;;;5.30;;
48945;SDS011;34999;50.940;3.998;2023-12-20T04:51:56;22.87;;;4.80;;
48945;SDS011;34999;50.940;3.998;2023-12-20T04:54:24;26.53;;;5.50;;
48945;SDS011;34999;50.940;3.998;2023-12-20T04:56:54;21.73;;;4.67;;
48945;SDS011;34999;50.940;3.998;2023-12-20T04:59:22;19.13;;;5.03;;
48945;SDS011;34999;50.940;3.998;2023-12-20T05:01:50;22.77;;;5.10;;
48945;SDS011;34999;50.940;3.998;2023-12-20T05:04:19;20.43;;;5.60;;
48945;SDS011;34999;50.940;3.998;2023-12-20T05:06:47;28.37;;;5.27;;
48945;SDS011;34999;50.940;3.998;2023-12-20T05:09:16;27.87;;;5.00;;
48945;SDS011;34999;50.940;3.998;2023-12-20T05:11:44;24.20;;;5.60;;
48945;SDS011;34999;50.940;3.998;2023-12-20T05:14:14;25.00;;;5.40;;
48945;SDS011;34999;50.940;3.998;2023-12-20T05:16:43;21.17;;;5.70;;
48945;SDS011;34999;50.940;3.998;2023-12-20T05:19:11;19.20;;;5.77;;
48945;SDS011;34999;50.940;3.998;2023-12-20T05:21:40;15.50;;;5.70;;
48945;SDS011;34999;50.940;3.998;2023-12-20T05:24:09;25.20;;;4.87;;
48945;SDS011;34999;50.940;3.998;2023-12-20T05:26:37;24.90;;;5.50;;
48945;SDS011;34999;50.940;3.998;2023-12-20T05:29:05;25.90;;;5.70;;
48945;SDS011;34999;50.940;3.998;2023-12-20T05:31:35;20.80;;;6.27;;
48945;SDS011;34999;50.940;3.998;2023-12-20T05:34:03;34.50;;;5.97;;
48945;SDS011;34999;50.940;3.998;2023-12-20T05:36:31;27.10;;;5.47;;
48945;SDS011;34999;50.940;3.998;2023-12-20T05:39:00;31.77;;;5.80;;
48945;SDS011;34999;50.940;3.998;2023-12-20T05:41:28;21.40;;;5.73;;
48945;SDS011;34999;50.940;3.998;2023-12-20T05:43:56;21.20;;;5.43;;
48945;SDS011;34999;50.940;3.998;2023-12-20T05:46:25;22.10;;;4.47;;
48945;SDS011;34999;50.940;3.998;2023-12-20T05:48:55;22.87;;;5.07;;
48945;SDS011;34999;50.940;3.998;2023-12-20T05:51:23;24.23;;;5.50;;
48945;SDS011;34999;50.940;3.998;2023-12-20T05:53:52;35.00;;;5.30;;
48945;SDS011;34999;50.940;3.998;2023-12-20T05:56:20;30.03;;;5.20;;
48945;SDS011;34999;50.940;3.998;2023-12-20T05:58:48;19.93;;;5.50;;
48945;SDS011;34999;50.940;3.998;2023-12-20T06:01:17;25.37;;;5.80;;
48945;SDS011;34999;50.940;3.998;2023-12-20T06:03:45;22.50;;;4.83;;
48945;SDS011;34999;50.940;3.998;2023-12-20T06:06:15;15.83;;;5.10;;
48945;SDS011;34999;50.940;3.998;2023-12-20T06:08:44;18.67;;;4.43;;
48945;SDS011;34999;50.940;3.998;2023-12-20T06:11:12;21.60;;;5.17;;
48945;SDS011;34999;50.940;3.998;2023-12-20T06:13:41;25.73;;;4.93;;
48945;SDS011;34999;50.940;3.998;2023-12-20T06:16:09;30.77;;;4.57;;
48945;SDS011;34999;50.940;3.998;2023-12-20T06:18:37;25.43;;;6.07;;
48945;SDS011;34999;50.940;3.998;2023-12-20T06:21:06;20.83;;;5.30;;
48945;SDS011;34999;50.940;3.998;2023-12-20T06:23:40;27.17;;;5.03;;
48945;SDS011;34999;50.940;3.998;2023-12-20T06:26:08;17.33;;;4.53;;
48945;SDS011;34999;50.940;3.998;2023-12-20T06:28:37;13.30;;;3.87;;
48945;SDS011;34999;50.940;3.998;2023-12-20T06:31:07;22.33;;;4.53;;
48945;SDS011;34999;50.940;3.998;2023-12-20T06:33:36;21.73;;;3.93;;
48945;SDS011;34999;50.940;3.998;2023-12-20T06:36:07;21.17;;;4.77;;
48945;SDS011;34999;50.940;3.998;2023-12-20T06:38:38;31.23;;;5.33;;
48945;SDS011;34999;50.940;3.998;2023-12-20T06:41:07;24.63;;;4.93;;
48945;SDS011;34999;50.940;3.998;2023-12-20T06:43:35;25.20;;;4.03;;
48945;SDS011;34999;50.940;3.998;2023-12-20T06:46:15;21.83;;;4.53;;
48945;SDS011;34999;50.940;3.998;2023-12-20T06:48:44;21.67;;;4.07;;
48945;SDS011;34999;50.940;3.998;2023-12-20T06:51:13;17.37;;;4.10;;
48945;SDS011;34999;50.940;3.998;2023-12-20T06:53:43;19.17;;;3.60;;
48945;SDS011;34999;50.940;3.998;2023-12-20T06:56:12;17.87;;;4.00;;
48945;SDS011;34999;50.940;3.998;2023-12-20T06:58:44;22.30;;;5.00;;
48945;SDS011;34999;50.940;3.998;2023-12-20T07:01:13;20.63;;;4.63;;
48945;SDS011;34999;50.940;3.998;2023-12-20T07:03:42;15.37;;;4.17;;
48945;SDS011;34999;50.940;3.998;2023-12-20T07:06:11;20.67;;;3.83;;
48945;SDS011;34999;50.940;3.998;2023-12-20T07:08:40;18.80;;;4.17;;
48945;SDS011;34999;50.940;3.998;2023-12-20T07:11:08;21.50;;;4.73;;
48945;SDS011;34999;50.940;3.998;2023-12-20T07:13:38;16.73;;;4.10;;
48945;SDS011;34999;50.940;3.998;2023-12-20T07:16:09;21.43;;;3.87;;
48945;SDS011;34999;50.940;3.998;2023-12-20T07:18:37;28.73;;;4.27;;
48945;SDS011;34999;50.940;3.998;2023-12-20T07:21:05;21.37;;;4.30;;
48945;SDS011;34999;50.940;3.998;2023-12-20T07:23:36;22.60;;;4.53;;
48945;SDS011;34999;50.940;3.998;2023-12-20T07:26:04;13.93;;;3.93;;
48945;SDS011;34999;50.940;3.998;2023-12-20T07:28:32;15.07;;;4.10;;
48945;SDS011;34999;50.940;3.998;2023-12-20T07:31:02;23.93;;;4.67;;
48945;SDS011;34999;50.940;3.998;2023-12-20T07:33:32;23.73;;;4.40;;
48945;SDS011;34999;50.940;3.998;2023-12-20T07:36:05;29.10;;;4.23;;
48945;SDS011;34999;50.940;3.998;2023-12-20T07:38:34;23.57;;;4.57;;
48945;SDS011;34999;50.940;3.998;2023-12-20T07:41:03;14.53;;;3.97;;
48945;SDS011;34999;50.940;3.998;2023-12-20T07:43:31;22.07;;;4.57;;
48945;SDS011;34999;50.940;3.998;2023-12-20T07:46:05;22.93;;;4.47;;
48945;SDS011;34999;50.940;3.998;2023-12-20T07:48:34;21.83;;;4.40;;
48945;SDS011;34999;50.940;3.998;2023-12-20T07:51:03;21.23;;;3.80;;
48945;SDS011;34999;50.940;3.998;2023-12-20T07:53:32;23.63;;;4.70;;
48945;SDS011;34999;50.940;3.998;2023-12-20T07:56:00;18.73;;;4.13;;
48945;SDS011;34999;50.940;3.998;2023-12-20T07:58:29;19.23;;;3.83;;
48945;SDS011;34999;50.940;3.998;2023-12-20T08:01:17;20.27;;;4.23;;
48945;SDS011;34999;50.940;3.998;2023-12-20T08:03:46;14.67;;;3.93;;
48945;SDS011;34999;50.940;3.998;2023-12-20T08:06:16;19.70;;;4.63;;
48945;SDS011;34999;50.940;3.998;2023-12-20T08:08:44;24.47;;;4.07;;
48945;SDS011;34999;50.940;3.998;2023-12-20T08:11:24;18.80;;;4.13;;
48945;SDS011;34999;50.940;3.998;2023-12-20T08:13:52;13.87;;;4.70;;
48945;SDS011;34999;50.940;3.998;2023-12-20T08:16:22;18.83;;;4.33;;
48945;SDS011;34999;50.940;3.998;2023-12-20T08:18:50;12.60;;;4.20;;
48945;SDS011;34999;50.940;3.998;2023-12-20T08:21:19;21.80;;;4.20;;
48945;SDS011;34999;50.940;3.998;2023-12-20T08:23:49;14.40;;;4.07;;
48945;SDS011;34999;50.940;3.998;2023-12-20T08:26:18;16.13;;;3.70;;
48945;SDS011;34999;50.940;3.998;2023-12-20T08:28:49;19.70;;;3.93;;
48945;SDS011;34999;50.940;3.998;2023-12-20T08:31:17;20.37;;;4.07;;
48945;SDS011;34999;50.940;3.998;2023-12-20T08:33:49;18.07;;;4.30;;
48945;SDS011;34999;50.940;3.998;2023-12-20T08:36:19;14.97;;;4.40;;
48945;SDS011;34999;50.940;3.998;2023-12-20T08:38:50;19.13;;;4.57;;
48945;SDS011;34999;50.940;3.998;2023-12-20T08:41:18;20.97;;;3.77;;
48945;SDS011;34999;50.940;3.998;2023-12-20T08:43:46;20.93;;;4.00;;
48945;SDS011;34999;50.940;3.998;2023-12-20T08:46:15;20.47;;;4.00;;
48945;SDS011;34999;50.940;3.998;2023-12-20T08:48:43;18.40;;;3.73;;
48945;SDS011;34999;50.940;3.998;2023-12-20T08:51:14;17.23;;;4.17;;
48945;SDS011;34999;50.940;3.998;2023-12-20T08:53:42;12.43;;;3.43;;
48945;SDS011;34999;50.940;3.998;2023-12-20T08:56:12;12.00;;;3.60;;
48945;SDS011;34999;50.940;3.998;2023-12-20T08:58:40;14.63;;;3.73;;
48945;SDS011;34999;50.940;3.998;2023-12-20T09:01:08;15.93;;;3.80;;
48945;SDS011;34999;50.940;3.998;2023-12-20T09:03:37;11.47;;;3.53;;
48945;SDS011;34999;50.940;3.998;2023-12-20T09:06:05;16.93;;;3.50;;
48945;SDS011;34999;50.940;3.998;2023-12-20T09:08:35;16.57;;;3.70;;
48945;SDS011;34999;50.940;3.998;2023-12-20T09:11:04;16.37;;;3.80;;
48945;SDS011;34999;50.940;3.998;2023-12-20T09:13:32;14.67;;;3.47;;
48945;SDS011;34999;50.940;3.998;2023-12-20T09:16:00;13.40;;;3.40;;
48945;SDS011;34999;50.940;3.998;2023-12-20T09:18:29;15.67;;;3.33;;
48945;SDS011;34999;50.940;3.998;2023-12-20T09:20:57;18.30;;;3.87;;
48945;SDS011;34999;50.940;3.998;2023-12-20T09:23:25;14.20;;;3.27;;
48945;SDS011;34999;50.940;3.998;2023-12-20T09:25:55;15.10;;;2.90;;
48945;SDS011;34999;50.940;3.998;2023-12-20T09:28:23;17.03;;;3.87;;
48945;SDS011;34999;50.940;3.998;2023-12-20T09:30:52;10.37;;;3.40;;
48945;SDS011;34999;50.940;3.998;2023-12-20T09:33:20;5.77;;;2.57;;
48945;SDS011;34999;50.940;3.998;2023-12-20T09:35:49;13.97;;;3.20;;
48945;SDS011;34999;50.940;3.998;2023-12-20T09:38:17;9.30;;;3.03;;
48945;SDS011;34999;50.940;3.998;2023-12-20T09:40:45;18.60;;;3.40;;
48945;SDS011;34999;50.940;3.998;2023-12-20T09:43:15;12.90;;;3.60;;
48945;SDS011;34999;50.940;3.998;2023-12-20T09:45:46;11.67;;;3.60;;
48945;SDS011;34999;50.940;3.998;2023-12-20T09:48:16;14.87;;;3.30;;
48945;SDS011;34999;50.940;3.998;2023-12-20T09:50:46;7.93;;;3.30;;
48945;SDS011;34999;50.940;3.998;2023-12-20T09:53:19;14.77;;;3.30;;
48945;SDS011;34999;50.940;3.998;2023-12-20T09:55:51;10.77;;;2.80;;
48945;SDS011;34999;50.940;3.998;2023-12-20T09:58:22;12.20;;;3.37;;
48945;SDS011;34999;50.940;3.998;2023-12-20T10:00:50;10.47;;;3.13;;
48945;SDS011;34999;50.940;3.998;2023-12-20T10:03:19;11.13;;;3.47;;
48945;SDS011;34999;50.940;3.998;2023-12-20T10:05:56;14.93;;;3.10;;
48945;SDS011;34999;50.940;3.998;2023-12-20T10:08:25;9.73;;;3.10;;
48945;SDS011;34999;50.940;3.998;2023-12-20T10:10:54;13.13;;;3.30;;
48945;SDS011;34999;50.940;3.998;2023-12-20T10:13:25;8.60;;;3.40;;
48945;SDS011;34999;50.940;3.998;2023-12-20T10:15:54;14.50;;;3.60;;
48945;SDS011;34999;50.940;3.998;2023-12-20T10:18:24;14.37;;;3.40;;
48945;SDS011;34999;50.940;3.998;2023-12-20T10:21:04;11.17;;;3.07;;
48945;SDS011;34999;50.940;3.998;2023-12-20T10:23:36;11.33;;;3.33;;
48945;SDS011;34999;50.940;3.998;2023-12-20T10:26:05;10.03;;;2.93;;
48945;SDS011;34999;50.940;3.998;2023-12-20T10:28:35;8.90;;;3.27;;
48945;SDS011;34999;50.940;3.998;2023-12-20T10:31:04;10.90;;;3.33;;
48945;SDS011;34999;50.940;3.998;2023-12-20T10:33:32;14.17;;;4.13;;
48945;SDS011;34999;50.940;3.998;2023-12-20T10:36:01;10.80;;;3.10;;
48945;SDS011;34999;50.940;3.998;2023-12-20T10:38:30;7.47;;;3.20;;
48945;SDS011;34999;50.940;3.998;2023-12-20T10:40:59;11.93;;;3.43;;
48945;SDS011;34999;50.940;3.998;2023-12-20T10:43:28;13.80;;;3.07;;
48945;SDS011;34999;50.940;3.998;2023-12-20T10:46:04;16.63;;;4.53;;
48945;SDS011;34999;50.940;3.998;2023-12-20T10:48:33;17.63;;;3.47;;
48945;SDS011;34999;50.940;3.998;2023-12-20T10:51:04;15.50;;;3.70;;
48945;SDS011;34999;50.940;3.998;2023-12-20T10:53:33;15.00;;;3.73;;
48945;SDS011;34999;50.940;3.998;2023-12-20T10:56:03;18.10;;;3.17;;
48945;SDS011;34999;50.940;3.998;2023-12-20T10:58:33;6.90;;;3.07;;
48945;SDS011;34999;50.940;3.998;2023-12-20T11:01:04;19.30;;;3.20;;
48945;SDS011;34999;50.940;3.998;2023-12-20T11:03:34;12.23;;;2.83;;
48945;SDS011;34999;50.940;3.998;2023-12-20T11:06:07;15.37;;;3.40;;
48945;SDS011;34999;50.940;3.998;2023-12-20T11:08:43;13.77;;;3.27;;
48945;SDS011;34999;50.940;3.998;2023-12-20T11:11:20;16.37;;;3.37;;
48945;SDS011;34999;50.940;3.998;2023-12-20T11:13:55;11.33;;;3.00;;
48945;SDS011;34999;50.940;3.998;2023-12-20T11:16:29;14.13;;;3.93;;
48945;SDS011;34999;50.940;3.998;2023-12-20T11:19:13;13.90;;;3.00;;
48945;SDS011;34999;50.940;3.998;2023-12-20T11:21:42;14.63;;;3.10;;
48945;SDS011;34999;50.940;3.998;2023-12-20T11:24:10;16.67;;;3.27;;
48945;SDS011;34999;50.940;3.998;2023-12-20T11:26:38;17.57;;;3.47;;
48945;SDS011;34999;50.940;3.998;2023-12-20T11:29:30;15.03;;;3.03;;
48945;SDS011;34999;50.940;3.998;2023-12-20T11:32:01;10.63;;;3.03;;
48945;SDS011;34999;50.940;3.998;2023-12-20T11:34:31;17.03;;;3.17;;
48945;SDS011;34999;50.940;3.998;2023-12-20T11:37:02;15.47;;;3.73;;
48945;SDS011;34999;50.940;3.998;2023-12-20T11:39:30;14.90;;;3.10;;
48945;SDS011;34999;50.940;3.998;2023-12-20T11:42:04;18.07;;;3.60;;
48945;SDS011;34999;50.940;3.998;2023-12-20T11:44:33;14.43;;;3.33;;
48945;SDS011;34999;50.940;3.998;2023-12-20T11:47:02;9.63;;;3.37;;
48945;SDS011;34999;50.940;3.998;2023-12-20T11:49:31;16.53;;;3.67;;
48945;SDS011;34999;50.940;3.998;2023-12-20T11:51:59;10.33;;;3.73;;
48945;SDS011;34999;50.940;3.998;2023-12-20T11:54:29;11.53;;;3.57;;
48945;SDS011;34999;50.940;3.998;2023-12-20T11:56:58;14.53;;;3.10;;
48945;SDS011;34999;50.940;3.998;2023-12-20T11:59:26;11.47;;;3.27;;
48945;SDS011;34999;50.940;3.998;2023-12-20T12:01:54;10.60;;;3.03;;
48945;SDS011;34999;50.940;3.998;2023-12-20T12:04:29;11.37;;;3.03;;
48945;SDS011;34999;50.940;3.998;2023-12-20T12:06:57;13.80;;;3.43;;
48945;SDS011;34999;50.940;3.998;2023-12-20T12:09:27;17.23;;;3.03;;
48945;SDS011;34999;50.940;3.998;2023-12-20T12:11:55;9.50;;;2.83;;
48945;SDS011;34999;50.940;3.998;2023-12-20T12:14:23;10.27;;;2.90;;
48945;SDS011;34999;50.940;3.998;2023-12-20T12:16:52;9.07;;;2.90;;
48945;SDS011;34999;50.940;3.998;2023-12-20T12:19:21;13.07;;;3.63;;
48945;SDS011;34999;50.940;3.998;2023-12-20T12:21:51;15.53;;;3.23;;
48945;SDS011;34999;50.940;3.998;2023-12-20T12:24:31;14.83;;;2.83;;
48945;SDS011;34999;50.940;3.998;2023-12-20T12:26:59;8.97;;;3.20;;
48945;SDS011;34999;50.940;3.998;2023-12-20T12:29:28;18.60;;;3.40;;
48945;SDS011;34999;50.940;3.998;2023-12-20T12:31:56;16.73;;;3.50;;
48945;SDS011;34999;50.940;3.998;2023-12-20T12:34:25;8.53;;;3.23;;
48945;SDS011;34999;50.940;3.998;2023-12-20T12:36:57;12.00;;;3.20;;
48945;SDS011;34999;50.940;3.998;2023-12-20T12:39:25;13.43;;;2.83;;
48945;SDS011;34999;50.940;3.998;2023-12-20T12:41:53;12.77;;;3.20;;
48945;SDS011;34999;50.940;3.998;2023-12-20T12:44:22;13.47;;;3.47;;
48945;SDS011;34999;50.940;3.998;2023-12-20T12:46:52;13.10;;;3.20;;
48945;SDS011;34999;50.940;3.998;2023-12-20T12:49:21;16.63;;;3.17;;
48945;SDS011;34999;50.940;3.998;2023-12-20T12:51:49;16.13;;;3.40;;
48945;SDS011;34999;50.940;3.998;2023-12-20T12:54:20;12.77;;;3.37;;
48945;SDS011;34999;50.940;3.998;2023-12-20T12:56:51;10.00;;;3.10;;
48945;SDS011;34999;50.940;3.998;2023-12-20T12:59:20;15.17;;;3.20;;
48945;SDS011;34999;50.940;3.998;2023-12-20T13:01:48;13.37;;;3.00;;
48945;SDS011;34999;50.940;3.998;2023-12-20T13:04:17;9.97;;;3.17;;
48945;SDS011;34999;50.940;3.998;2023-12-20T13:06:45;12.93;;;3.17;;
48945;SDS011;34999;50.940;3.998;2023-12-20T13:09:13;10.07;;;3.10;;
48945;SDS011;34999;50.940;3.998;2023-12-20T13:11:43;9.87;;;2.70;;
48945;SDS011;34999;50.940;3.998;2023-12-20T13:14:12;8.53;;;2.70;;
48945;SDS011;34999;50.940;3.998;2023-12-20T13:16:42;8.53;;;3.00;;
48945;SDS011;34999;50.940;3.998;2023-12-20T13:19:11;18.20;;;3.17;;
48945;SDS011;34999;50.940;3.998;2023-12-20T13:21:43;9.07;;;2.80;;
48945;SDS011;34999;50.940;3.998;2023-12-20T13:24:11;6.40;;;3.00;;
48945;SDS011;34999;50.940;3.998;2023-12-20T13:26:39;15.63;;;3.43;;
48945;SDS011;34999;50.940;3.998;2023-12-20T13:29:09;13.17;;;3.43;;
48945;SDS011;34999;50.940;3.998;2023-12-20T13:31:38;18.83;;;3.83;;
48945;SDS011;34999;50.940;3.998;2023-12-20T13:34:07;15.30;;;3.40;;
48945;SDS011;34999;50.940;3.998;2023-12-20T13:36:36;14.07;;;3.30;;
48945;SDS011;34999;50.940;3.998;2023-12-20T13:39:04;8.47;;;3.00;;
48945;SDS011;34999;50.940;3.998;2023-12-20T13:41:34;9.63;;;3.00;;
48945;SDS011;34999;50.940;3.998;2023-12-20T13:44:02;9.40;;;3.10;;
48945;SDS011;34999;50.940;3.998;2023-12-20T13:46:32;11.63;;;3.10;;
48945;SDS011;34999;50.940;3.998;2023-12-20T13:49:00;10.70;;;2.93;;
48945;SDS011;34999;50.940;3.998;2023-12-20T13:51:29;11.37;;;2.80;;
48945;SDS011;34999;50.940;3.998;2023-12-20T13:53:58;11.13;;;3.00;;
48945;SDS011;34999;50.940;3.998;2023-12-20T13:56:26;10.47;;;3.07;;
48945;SDS011;34999;50.940;3.998;2023-12-20T13:58:54;10.40;;;3.13;;
48945;SDS011;34999;50.940;3.998;2023-12-20T14:01:23;8.93;;;2.67;;
48945;SDS011;34999;50.940;3.998;2023-12-20T14:03:52;9.50;;;3.00;;
48945;SDS011;34999;50.940;3.998;2023-12-20T14:06:21;10.90;;;2.90;;
48945;SDS011;34999;50.940;3.998;2023-12-20T14:08:49;13.97;;;3.30;;
48945;SDS011;34999;50.940;3.998;2023-12-20T14:11:17;9.20;;;3.10;;
48945;SDS011;34999;50.940;3.998;2023-12-20T14:13:46;10.93;;;2.63;;
48945;SDS011;34999;50.940;3.998;2023-12-20T14:16:14;10.43;;;3.03;;
48945;SDS011;34999;50.940;3.998;2023-12-20T14:18:43;12.80;;;3.23;;
48945;SDS011;34999;50.940;3.998;2023-12-20T14:21:12;7.67;;;2.60;;
48945;SDS011;34999;50.940;3.998;2023-12-20T14:23:41;11.80;;;4.07;;
48945;SDS011;34999;50.940;3.998;2023-12-20T14:26:12;11.03;;;3.13;;
48945;SDS011;34999;50.940;3.998;2023-12-20T14:28:41;10.97;;;3.10;;
48945;SDS011;34999;50.940;3.998;2023-12-20T14:31:10;9.07;;;3.00;;
48945;SDS011;34999;50.940;3.998;2023-12-20T14:33:38;10.40;;;3.03;;
48945;SDS011;34999;50.940;3.998;2023-12-20T14:36:08;16.50;;;3.13;;
48945;SDS011;34999;50.940;3.998;2023-12-20T14:38:38;11.63;;;3.20;;
48945;SDS011;34999;50.940;3.998;2023-12-20T14:41:07;10.67;;;3.00;;
48945;SDS011;34999;50.940;3.998;2023-12-20T14:43:36;8.57;;;2.60;;
48945;SDS011;34999;50.940;3.998;2023-12-20T14:46:04;9.37;;;3.70;;
48945;SDS011;34999;50.940;3.998;2023-12-20T14:48:33;8.00;;;2.77;;